Time;durP1;ratioP1;P1;durP2;ratioP2;P2;SDS_P1;SDS_P2;PMS_P1;PMS_P2;Temp;Humidity;BMP_temperature;BMP_pressure;BME280_temperature;BME280_humidity;BME280_pressure;Samples;Min_cycle;Max_cycle;Signal;HPM_P1;HPM_P2
2022/12/03 00:00:53;;;;;;;27.95;16.23;;;3.90;99.90;;;;;;4915801;29;20048;-83
2022/12/03 00:03:18;;;;;;;26.00;15.82;;;3.90;99.90;;;;;;4914752;29;20048;-83
2022/12/03 00:05:44;;;;;;;24.63;15.30;;;3.90;99.90;;;;;;4915107;29;20127;-83
2022/12/03 00:08:10;;;;;;;29.10;16.40;;;3.90;99.90;;;;;;4915987;29;20400;-83
2022/12/03 00:10:35;;;;;;;24.83;15.70;;;3.90;99.90;;;;;;4914220;29;20040;-83
2022/12/03 00:13:01;;;;;;;27.67;16.35;;;3.90;99.90;;;;;;4914065;29;20043;-83
2022/12/03 00:15:26;;;;;;;25.48;15.05;;;3.90;99.90;;;;;;4918561;29;20051;-83
2022/12/03 00:17:52;;;;;;;28.42;16.88;;;3.90;99.90;;;;;;4919454;29;20046;-83
2022/12/03 00:20:21;;;;;;;28.10;16.55;;;3.90;99.90;;;;;;4918750;29;20510;-83
2022/12/03 00:22:46;;;;;;;27.42;15.50;;;4.00;99.90;;;;;;4920246;29;20048;-83
2022/12/03 00:25:12;;;;;;;28.13;16.10;;;3.90;99.90;;;;;;4917801;29;20051;-83
2022/12/03 00:27:38;;;;;;;29.67;17.13;;;3.90;99.90;;;;;;4920398;29;20059;-83
2022/12/03 00:30:04;;;;;;;28.05;16.83;;;3.90;99.90;;;;;;4918827;29;20044;-83
2022/12/03 00:32:30;;;;;;;27.80;16.20;;;4.00;99.90;;;;;;4917780;29;20052;-83
2022/12/03 00:34:55;;;;;;;26.52;15.60;;;4.00;99.90;;;;;;4918828;29;20044;-83
2022/12/03 00:37:21;;;;;;;27.63;16.80;;;4.00;99.90;;;;;;4920183;29;20370;-83
2022/12/03 00:39:48;;;;;;;27.20;16.02;;;4.00;99.90;;;;;;4919256;29;20051;-83
2022/12/03 00:42:13;;;;;;;27.58;16.13;;;4.00;99.90;;;;;;4919085;29;20547;-83
2022/12/03 00:44:39;;;;;;;27.13;16.30;;;4.00;99.90;;;;;;4918448;29;20048;-83
2022/12/03 00:47:04;;;;;;;30.27;16.48;;;4.00;99.90;;;;;;4917940;29;20040;-83
2022/12/03 00:49:30;;;;;;;26.55;15.93;;;4.00;99.90;;;;;;4918951;29;20067;-82
2022/12/03 00:51:55;;;;;;;25.80;15.80;;;4.00;99.90;;;;;;4920364;29;20044;-83
2022/12/03 00:54:21;;;;;;;30.08;16.48;;;4.00;99.90;;;;;;4917276;29;20068;-83
2022/12/03 00:56:47;;;;;;;25.88;15.57;;;4.00;99.90;;;;;;4919475;29;20047;-82
2022/12/03 00:59:12;;;;;;;26.92;16.15;;;4.00;99.90;;;;;;4918870;29;20132;-83
2022/12/03 01:01:38;;;;;;;26.38;15.07;;;4.10;99.90;;;;;;4917750;29;20044;-83
2022/12/03 01:04:04;;;;;;;28.42;15.85;;;4.00;99.90;;;;;;4918333;29;20056;-83
2022/12/03 01:06:29;;;;;;;25.30;15.63;;;4.10;99.90;;;;;;4917847;29;20048;-82
2022/12/03 01:08:55;;;;;;;28.55;16.08;;;4.10;99.90;;;;;;4918486;29;20100;-82
2022/12/03 01:11:40;;;;;;;27.35;15.18;;;4.10;99.90;;;;;;4918114;29;20044;-82
2022/12/03 01:14:14;;;;;;;26.38;15.27;;;4.10;99.90;;;;;;4918390;29;20123;-82
2022/12/03 01:16:41;;;;;;;27.70;16.00;;;4.10;99.90;;;;;;4917645;29;20048;-82
2022/12/03 01:19:09;;;;;;;25.38;15.27;;;4.10;99.90;;;;;;4919112;29;20499;-82
2022/12/03 01:21:35;;;;;;;24.15;14.82;;;4.10;99.90;;;;;;4917592;29;20092;-82
2022/12/03 01:24:01;;;;;;;25.70;14.77;;;4.10;99.90;;;;;;4916675;29;20588;-83
2022/12/03 01:26:27;;;;;;;27.25;16.20;;;4.10;99.90;;;;;;4916390;29;20052;-83
2022/12/03 01:28:53;;;;;;;26.67;15.63;;;4.10;99.90;;;;;;4917677;29;20040;-82
2022/12/03 01:34:04;;;;;;;24.88;15.70;;;4.10;99.90;;;;;;4918845;29;20048;-83
2022/12/03 01:36:29;;;;;;;25.88;15.35;;;4.20;99.90;;;;;;4917536;29;20099;-83
2022/12/03 01:38:55;;;;;;;25.38;15.38;;;4.10;99.90;;;;;;4918893;29;20044;-83
2022/12/03 01:41:22;;;;;;;25.48;15.80;;;4.10;99.90;;;;;;4917734;29;20068;-82
2022/12/03 01:43:49;;;;;;;24.92;15.07;;;4.20;99.90;;;;;;4916931;29;20048;-82
2022/12/03 01:46:18;;;;;;;25.63;15.15;;;4.20;99.90;;;;;;4915555;29;20044;-82
2022/12/03 01:48:45;;;;;;;24.73;15.57;;;4.20;99.90;;;;;;4917546;29;20075;-82
2022/12/03 01:51:12;;;;;;;25.80;16.08;;;4.10;99.90;;;;;;4916295;29;20050;-83
2022/12/03 01:53:38;;;;;;;25.02;15.25;;;4.20;99.90;;;;;;4918338;29;20444;-83
2022/12/03 01:56:03;;;;;;;24.08;15.18;;;4.20;99.90;;;;;;4917995;29;20131;-83
2022/12/03 01:58:29;;;;;;;25.98;15.80;;;4.20;99.90;;;;;;4917419;29;20056;-83
2022/12/03 02:00:58;;;;;;;21.85;14.05;;;4.20;99.90;;;;;;4916915;29;20055;-83
2022/12/03 02:03:25;;;;;;;25.25;15.43;;;4.20;99.90;;;;;;4916148;29;20131;-83
2022/12/03 02:05:51;;;;;;;25.08;15.60;;;4.20;99.90;;;;;;4917566;29;20444;-83
2022/12/03 02:08:38;;;;;;;25.55;15.98;;;4.20;99.90;;;;;;4917451;29;20436;-82
2022/12/03 02:11:28;;;;;;;24.45;15.23;;;4.20;99.90;;;;;;4916220;29;20397;-82
2022/12/03 02:13:58;;;;;;;25.73;15.52;;;4.20;99.90;;;;;;4917748;29;20055;-83
2022/12/03 02:16:24;;;;;;;27.25;16.05;;;4.20;99.90;;;;;;4916627;29;20444;-82
2022/12/03 02:18:49;;;;;;;25.83;15.60;;;4.20;99.90;;;;;;4916517;29;20086;-83
2022/12/03 02:21:38;;;;;;;24.92;15.20;;;4.20;99.90;;;;;;4916069;29;20087;-82
2022/12/03 02:24:38;;;;;;;24.90;15.40;;;4.20;99.90;;;;;;4897925;29;20048;-82
2022/12/03 02:27:05;;;;;;;24.27;14.95;;;4.20;99.90;;;;;;4917652;29;20135;-83
2022/12/03 02:29:30;;;;;;;25.95;15.65;;;4.20;99.90;;;;;;4916230;29;20044;-82
2022/12/03 02:31:56;;;;;;;24.67;15.25;;;4.20;99.90;;;;;;4915452;29;20100;-83
2022/12/03 02:34:39;;;;;;;24.20;15.25;;;4.20;99.90;;;;;;4916542;29;20119;-83
2022/12/03 02:37:09;;;;;;;25.58;16.20;;;4.20;99.90;;;;;;4916222;29;20039;-82
2022/12/03 02:39:39;;;;;;;24.33;15.77;;;4.20;99.90;;;;;;4916429;29;20044;-83
2022/12/03 02:44:49;;;;;;;23.23;14.90;;;4.20;99.90;;;;;;4916316;29;20048;-82
2022/12/03 02:47:15;;;;;;;22.88;14.70;;;4.20;99.90;;;;;;4916354;29;20032;-83
2022/12/03 02:49:41;;;;;;;25.45;15.52;;;4.20;99.90;;;;;;4915760;29;20397;-83
2022/12/03 02:52:07;;;;;;;24.10;15.52;;;4.20;99.90;;;;;;4913382;29;20048;-83
2022/12/03 02:54:33;;;;;;;22.50;14.98;;;4.20;99.90;;;;;;4917685;29;20040;-82
2022/12/03 02:56:59;;;;;;;25.42;15.52;;;4.20;99.90;;;;;;4916964;29;20040;-82
2022/12/03 02:59:24;;;;;;;23.40;15.35;;;4.20;99.90;;;;;;4914523;29;20051;-83
2022/12/03 03:01:50;;;;;;;24.13;15.23;;;4.20;99.90;;;;;;4914969;29;20044;-83
2022/12/03 03:04:16;;;;;;;23.42;14.75;;;4.20;99.90;;;;;;4916521;29;20075;-83
2022/12/03 03:06:41;;;;;;;24.80;16.23;;;4.20;99.90;;;;;;4916347;29;20130;-82
2022/12/03 03:09:07;;;;;;;24.67;15.73;;;4.20;99.90;;;;;;4917128;29;20384;-82
2022/12/03 03:11:33;;;;;;;26.85;16.42;;;4.20;99.90;;;;;;4916626;29;20095;-82
2022/12/03 03:14:01;;;;;;;24.58;15.88;;;4.20;99.90;;;;;;4913108;29;20048;-82
2022/12/03 03:16:27;;;;;;;23.20;15.73;;;4.20;99.90;;;;;;4915344;29;20540;-83
2022/12/03 03:18:52;;;;;;;24.48;16.25;;;4.20;99.90;;;;;;4917348;29;20044;-83
2022/12/03 03:21:18;;;;;;;26.92;16.60;;;4.20;99.90;;;;;;4913655;29;20055;-83
2022/12/03 03:23:44;;;;;;;24.27;15.63;;;4.20;99.90;;;;;;4916647;29;20047;-82
2022/12/03 03:26:12;;;;;;;26.23;15.93;;;4.20;99.90;;;;;;4915299;29;20044;-82
2022/12/03 03:28:41;;;;;;;22.42;15.35;;;4.20;99.90;;;;;;4916051;29;20043;-82
2022/12/03 03:31:10;;;;;;;23.67;15.20;;;4.20;99.90;;;;;;4915705;29;20733;-82
2022/12/03 03:33:38;;;;;;;23.27;15.30;;;4.20;99.90;;;;;;4915573;29;20043;-82
2022/12/03 03:36:04;;;;;;;22.55;15.38;;;4.20;99.90;;;;;;4913657;29;20520;-83
2022/12/03 03:38:31;;;;;;;24.80;15.80;;;4.30;99.90;;;;;;4915814;29;20052;-82
2022/12/03 03:40:58;;;;;;;23.13;15.13;;;4.20;99.90;;;;;;4911787;29;20047;-82
2022/12/03 03:43:24;;;;;;;22.35;15.20;;;4.20;99.90;;;;;;4914741;29;20036;-82
2022/12/03 03:45:51;;;;;;;24.23;15.70;;;4.20;99.90;;;;;;4915520;29;20051;-82
2022/12/03 03:48:16;;;;;;;24.80;16.00;;;4.30;99.90;;;;;;4914245;29;20059;-83
2022/12/03 03:50:43;;;;;;;24.67;16.27;;;4.30;99.90;;;;;;4930510;29;20052;-82
2022/12/03 03:53:10;;;;;;;23.02;15.48;;;4.30;99.90;;;;;;4915785;29;20044;-82
2022/12/03 03:55:37;;;;;;;22.23;15.10;;;4.30;99.90;;;;;;4915368;29;20044;-82
2022/12/03 03:58:02;;;;;;;21.85;14.90;;;4.30;99.90;;;;;;4914780;29;20048;-82
2022/12/03 04:00:29;;;;;;;25.35;16.73;;;4.30;99.90;;;;;;4914554;29;20047;-82
2022/12/03 04:02:55;;;;;;;24.15;15.60;;;4.30;99.90;;;;;;4915714;29;20048;-83
2022/12/03 04:05:22;;;;;;;24.30;15.75;;;4.30;99.90;;;;;;4915192;29;20059;-82
2022/12/03 04:07:49;;;;;;;25.10;16.50;;;4.30;99.90;;;;;;4916619;29;20452;-82
2022/12/03 04:13:01;;;;;;;24.75;16.38;;;4.30;99.90;;;;;;4913640;29;20142;-83
2022/12/03 04:15:26;;;;;;;23.73;16.30;;;4.30;99.90;;;;;;4915845;29;20052;-83
2022/12/03 04:20:36;;;;;;;24.80;16.35;;;4.30;99.90;;;;;;4915084;29;20044;-83
2022/12/03 04:23:03;;;;;;;24.25;15.88;;;4.30;99.90;;;;;;4914764;29;20489;-83
2022/12/03 04:30:57;;;;;;;23.65;14.88;;;4.30;99.90;;;;;;4913867;29;20528;-83
2022/12/03 04:36:07;;;;;;;24.10;15.98;;;4.30;99.90;;;;;;4903384;29;20489;-83
2022/12/03 04:38:33;;;;;;;24.80;15.65;;;4.30;99.90;;;;;;4914525;29;20052;-83
2022/12/03 04:41:02;;;;;;;24.58;16.52;;;4.30;99.90;;;;;;4914127;29;20043;-83
2022/12/03 04:43:30;;;;;;;25.33;17.20;;;4.30;99.90;;;;;;4914859;29;20493;-82
2022/12/03 04:45:55;;;;;;;23.58;15.45;;;4.30;99.90;;;;;;4913966;29;20489;-83
2022/12/03 04:48:21;;;;;;;23.67;16.27;;;4.30;99.90;;;;;;4915485;29;20092;-83
2022/12/03 04:50:47;;;;;;;24.38;16.23;;;4.30;99.90;;;;;;4915487;29;20047;-83
2022/12/03 04:53:13;;;;;;;24.15;15.88;;;4.30;99.90;;;;;;4913879;29;20048;-83
2022/12/03 04:55:38;;;;;;;24.52;15.90;;;4.30;99.90;;;;;;4909613;29;20091;-83
2022/12/03 04:58:04;;;;;;;26.27;15.70;;;4.20;99.90;;;;;;4913713;29;20048;-82
2022/12/03 05:00:30;;;;;;;23.88;16.55;;;4.30;99.90;;;;;;4914988;29;20504;-83
2022/12/03 05:02:55;;;;;;;21.98;15.07;;;4.30;99.90;;;;;;4919219;29;20123;-83
2022/12/03 05:05:21;;;;;;;24.25;15.88;;;4.30;99.90;;;;;;4917163;29;20051;-82
2022/12/03 05:07:47;;;;;;;26.00;16.65;;;4.30;99.90;;;;;;4917303;29;20440;-83
2022/12/03 05:10:12;;;;;;;24.05;16.08;;;4.30;99.90;;;;;;4919065;29;20059;-82
2022/12/03 05:12:38;;;;;;;26.90;17.23;;;4.30;99.90;;;;;;4919061;29;20126;-82
2022/12/03 05:15:04;;;;;;;24.42;16.65;;;4.30;99.90;;;;;;4917452;29;20404;-82
2022/12/03 05:17:30;;;;;;;24.38;16.10;;;4.20;99.90;;;;;;4918871;29;20048;-82
2022/12/03 05:22:40;;;;;;;23.23;16.17;;;4.30;99.90;;;;;;4917929;29;20047;-83
2022/12/03 05:25:06;;;;;;;26.85;17.52;;;4.20;99.90;;;;;;4919167;29;20040;-83
2022/12/03 05:27:32;;;;;;;26.55;16.75;;;4.30;99.90;;;;;;4917242;29;20448;-82
2022/12/03 05:29:57;;;;;;;24.88;16.40;;;4.20;99.90;;;;;;4918549;29;20044;-83
2022/12/03 05:32:23;;;;;;;24.38;15.95;;;4.30;99.90;;;;;;4917523;29;20048;-83
2022/12/03 05:34:48;;;;;;;28.25;17.25;;;4.20;99.90;;;;;;4909414;29;20040;-83
2022/12/03 05:37:14;;;;;;;26.67;16.90;;;4.20;99.90;;;;;;4916468;29;20043;-83
2022/12/03 05:39:40;;;;;;;25.50;17.30;;;4.20;99.90;;;;;;4917695;29;20100;-83
2022/12/03 05:44:50;;;;;;;24.60;16.65;;;4.20;99.90;;;;;;4918972;29;20052;-82
2022/12/03 05:47:15;;;;;;;28.10;16.88;;;4.20;99.90;;;;;;4917017;29;20043;-83
2022/12/03 05:49:41;;;;;;;27.23;16.17;;;4.20;99.90;;;;;;4917978;29;20096;-83
2022/12/03 05:52:07;;;;;;;25.02;16.92;;;4.30;99.90;;;;;;4917424;29;20539;-83
2022/12/03 05:54:32;;;;;;;24.50;16.45;;;4.20;99.90;;;;;;4916686;29;20052;-82
2022/12/03 05:56:58;;;;;;;24.83;16.98;;;4.30;99.90;;;;;;4905082;29;20052;-83
2022/12/03 05:59:23;;;;;;;24.75;16.10;;;4.20;99.90;;;;;;4917822;29;20464;-82
2022/12/03 06:01:49;;;;;;;26.15;16.83;;;4.20;99.90;;;;;;4910910;29;20044;-83
2022/12/03 06:04:14;;;;;;;25.55;16.70;;;4.20;99.90;;;;;;4915884;29;20048;-82
2022/12/03 06:06:40;;;;;;;27.20;17.27;;;4.30;99.90;;;;;;4917249;29;20123;-82
2022/12/03 06:09:06;;;;;;;26.10;17.23;;;4.30;99.90;;;;;;4917962;29;20420;-82
2022/12/03 06:11:33;;;;;;;27.52;17.30;;;4.30;99.90;;;;;;4918307;29;20124;-83
2022/12/03 06:13:59;;;;;;;26.45;16.80;;;4.30;99.90;;;;;;4917862;29;20143;-82
2022/12/03 06:16:25;;;;;;;27.65;18.10;;;4.20;99.90;;;;;;4914296;29;20109;-82
2022/12/03 06:18:51;;;;;;;25.15;16.73;;;4.30;99.90;;;;;;4916721;29;20386;-83
2022/12/03 06:21:16;;;;;;;27.75;17.30;;;4.30;99.90;;;;;;4918209;29;20052;-82
2022/12/03 06:23:43;;;;;;;24.30;16.63;;;4.30;99.90;;;;;;4918625;29;20040;-82
2022/12/03 06:26:12;;;;;;;25.95;16.23;;;4.20;99.90;;;;;;4917460;29;20054;-83
2022/12/03 06:28:38;;;;;;;26.75;16.25;;;4.30;99.90;;;;;;4918844;29;20126;-82
2022/12/03 06:31:04;;;;;;;28.77;17.52;;;4.20;99.90;;;;;;4917004;29;20136;-83
2022/12/03 06:33:29;;;;;;;25.00;17.08;;;4.20;99.90;;;;;;4917505;29;20072;-82
2022/12/03 06:35:55;;;;;;;24.27;16.10;;;4.30;99.90;;;;;;4918255;29;20464;-82
2022/12/03 06:38:21;;;;;;;26.67;17.00;;;4.20;99.90;;;;;;4913164;29;20055;-84
2022/12/03 06:40:47;;;;;;;24.40;16.50;;;4.20;99.90;;;;;;4917537;29;20048;-83
2022/12/03 06:43:12;;;;;;;27.05;16.88;;;4.30;99.90;;;;;;4916809;29;20044;-82
2022/12/03 06:45:38;;;;;;;25.00;16.10;;;4.20;99.90;;;;;;4916105;29;20040;-85
2022/12/03 06:48:04;;;;;;;26.33;16.52;;;4.20;99.90;;;;;;4916154;29;20555;-84
2022/12/03 06:50:30;;;;;;;26.23;16.92;;;4.20;99.90;;;;;;4912569;29;20060;-83
2022/12/03 06:52:55;;;;;;;27.15;17.27;;;4.20;99.90;;;;;;4916604;29;20048;-86
2022/12/03 06:55:21;;;;;;;26.27;16.60;;;4.20;99.90;;;;;;4914298;29;20448;-84
2022/12/03 06:57:46;;;;;;;27.95;17.60;;;4.20;99.90;;;;;;4914532;29;20040;-83
2022/12/03 07:00:13;;;;;;;26.75;16.67;;;4.20;99.90;;;;;;4913552;29;20044;-84
2022/12/03 07:02:38;;;;;;;26.23;17.00;;;4.20;99.90;;;;;;4913947;29;20036;-84
2022/12/03 07:05:04;;;;;;;25.75;16.98;;;4.20;99.90;;;;;;4915465;29;20119;-84
2022/12/03 07:07:30;;;;;;;26.15;16.70;;;4.20;99.90;;;;;;4915181;29;20381;-84
2022/12/03 07:09:55;;;;;;;26.30;17.02;;;4.20;99.90;;;;;;4914091;29;20453;-83
2022/12/03 07:12:21;;;;;;;27.90;17.33;;;4.20;99.90;;;;;;4915517;29;20036;-83
2022/12/03 07:14:47;;;;;;;25.92;16.85;;;4.20;99.90;;;;;;4913758;29;20048;-84
2022/12/03 07:17:12;;;;;;;28.38;17.20;;;4.20;99.90;;;;;;4916266;29;20040;-84
2022/12/03 07:19:38;;;;;;;28.23;17.60;;;4.20;99.90;;;;;;4914654;29;20080;-85
2022/12/03 07:22:03;;;;;;;25.98;16.33;;;4.20;99.90;;;;;;4916554;29;20052;-84
2022/12/03 07:24:29;;;;;;;26.67;16.85;;;4.20;99.90;;;;;;4917000;29;20115;-91
2022/12/03 07:26:54;;;;;;;27.70;16.40;;;4.20;99.90;;;;;;4917162;29;20051;-94
2022/12/03 07:29:20;;;;;;;26.23;16.17;;;4.20;99.90;;;;;;4915030;29;20036;-91
2022/12/03 07:31:46;;;;;;;27.35;16.02;;;4.20;99.90;;;;;;4917929;29;20044;-91
2022/12/03 07:34:12;;;;;;;25.25;16.00;;;4.20;99.90;;;;;;4916834;29;20088;-93
2022/12/03 07:36:37;;;;;;;25.92;16.55;;;4.20;99.90;;;;;;4915153;29;20054;-85
2022/12/03 07:39:03;;;;;;;29.40;17.20;;;4.20;99.90;;;;;;4916287;29;20103;-83
2022/12/03 07:41:29;;;;;;;27.45;16.75;;;4.20;99.90;;;;;;4914001;29;20516;-83
2022/12/03 07:43:54;;;;;;;27.80;17.67;;;4.20;99.90;;;;;;4916924;29;20036;-83
2022/12/03 07:46:20;;;;;;;28.10;17.35;;;4.20;99.90;;;;;;4915723;29;20112;-83
2022/12/03 07:48:48;;;;;;;28.88;18.00;;;4.20;99.90;;;;;;4916279;29;20095;-83
2022/12/03 07:51:14;;;;;;;26.70;17.85;;;4.20;99.90;;;;;;4915643;29;20088;-83
2022/12/03 07:53:40;;;;;;;27.75;17.33;;;4.20;99.90;;;;;;4916215;29;20123;-82
2022/12/03 07:56:06;;;;;;;25.58;17.10;;;4.20;99.90;;;;;;4915782;29;20103;-83
2022/12/03 07:58:31;;;;;;;28.35;17.65;;;4.20;99.90;;;;;;4915245;29;20441;-83
2022/12/03 08:00:57;;;;;;;28.27;18.15;;;4.20;99.90;;;;;;4915270;29;20135;-82
2022/12/03 08:03:23;;;;;;;28.13;18.30;;;4.20;99.90;;;;;;4914586;29;20079;-83
2022/12/03 08:05:49;;;;;;;28.10;18.33;;;4.20;99.90;;;;;;4916010;29;20040;-84
2022/12/03 08:08:14;;;;;;;29.60;18.17;;;4.20;99.90;;;;;;4915011;29;20460;-84
2022/12/03 08:10:40;;;;;;;35.55;21.42;;;4.20;99.90;;;;;;4903210;29;20537;-83
2022/12/03 08:13:12;;;;;;;30.98;19.02;;;4.20;99.90;;;;;;4912985;29;20040;-83
2022/12/03 08:15:37;;;;;;;35.65;21.98;;;4.20;99.90;;;;;;4913266;29;20036;-84
2022/12/03 08:18:17;;;;;;;33.80;22.02;;;4.20;99.90;;;;;;4905758;29;20082;-83
2022/12/03 08:20:45;;;;;;;34.25;21.23;;;4.20;99.90;;;;;;4915664;29;20551;-84
2022/12/03 08:23:19;;;;;;;34.90;21.30;;;4.10;99.90;;;;;;4914960;29;20048;-84
2022/12/03 08:25:45;;;;;;;35.85;21.20;;;4.20;99.90;;;;;;4915694;29;20036;-84
2022/12/03 08:28:21;;;;;;;33.65;20.55;;;4.20;99.90;;;;;;4915376;29;20063;-84
2022/12/03 08:30:58;;;;;;;33.40;20.77;;;4.20;99.90;;;;;;4914565;29;20099;-85
2022/12/03 08:33:26;;;;;;;33.67;20.90;;;4.10;99.90;;;;;;4914100;29;20048;-85
2022/12/03 08:35:51;;;;;;;32.25;20.08;;;4.10;99.90;;;;;;4917443;29;20400;-84
2022/12/03 08:38:22;;;;;;;32.17;19.58;;;4.10;99.90;;;;;;4918700;29;20059;-84
2022/12/03 08:40:50;;;;;;;34.70;20.27;;;4.10;99.90;;;;;;4920340;29;20051;-84
2022/12/03 08:43:27;;;;;;;30.15;18.38;;;4.10;99.90;;;;;;4919914;29;20044;-84
2022/12/03 08:45:56;;;;;;;29.15;17.77;;;4.10;99.90;;;;;;4918008;29;20131;-83
2022/12/03 08:48:37;;;;;;;30.10;17.80;;;4.10;99.90;;;;;;4917993;29;20048;-83
2022/12/03 08:51:21;;;;;;;32.15;18.75;;;4.00;99.90;;;;;;4918398;29;20051;-84
2022/12/03 08:53:47;;;;;;;;;;;4.10;99.90;;;;;;4918754;29;20488;-83
2022/12/03 08:56:27;;;;;;;31.80;18.08;;;4.00;99.90;;;;;;4918361;29;19923;-83
2022/12/03 08:59:33;;;;;;;32.22;18.05;;;4.00;99.90;;;;;;4917280;29;20052;-83
2022/12/03 09:01:59;;;;;;;30.23;17.98;;;4.00;99.90;;;;;;4869571;29;20060;-84
2022/12/03 09:04:43;;;;;;;31.05;17.95;;;4.00;99.90;;;;;;4915887;29;20095;-85
2022/12/03 09:07:09;;;;;;;29.77;18.05;;;4.00;99.90;;;;;;4918483;29;20048;-84
2022/12/03 09:09:35;;;;;;;28.08;18.27;;;4.00;99.90;;;;;;4917404;29;20051;-86
2022/12/03 09:12:01;;;;;;;31.92;18.10;;;4.00;99.90;;;;;;4916863;29;20055;-84
2022/12/03 09:14:27;;;;;;;32.08;18.90;;;4.00;99.90;;;;;;4917886;29;20482;-84
2022/12/03 09:16:54;;;;;;;30.75;18.10;;;4.00;99.90;;;;;;4917195;29;20040;-84
2022/12/03 09:19:21;;;;;;;32.45;19.00;;;4.00;99.90;;;;;;4913937;29;20827;-87
2022/12/03 09:21:47;;;;;;;29.85;18.42;;;4.00;99.90;;;;;;4919859;29;20036;-87
2022/12/03 09:24:13;;;;;;;31.95;18.92;;;3.90;99.90;;;;;;4917561;29;20063;-85
2022/12/03 09:26:38;;;;;;;30.13;18.58;;;3.90;99.90;;;;;;4917498;29;20048;-83
2022/12/03 09:29:04;;;;;;;31.17;17.83;;;4.00;99.90;;;;;;4918338;29;20404;-82
2022/12/03 09:31:29;;;;;;;30.50;17.83;;;3.90;99.90;;;;;;4918421;29;20408;-82
2022/12/03 09:33:55;;;;;;;29.88;17.63;;;3.90;99.90;;;;;;4906274;29;20060;-82
2022/12/03 09:36:21;;;;;;;29.08;17.92;;;4.00;99.90;;;;;;4900195;29;20081;-82
2022/12/03 09:38:46;;;;;;;33.63;19.48;;;4.00;99.90;;;;;;4899494;29;20048;-82
2022/12/03 09:41:12;;;;;;;33.40;19.00;;;3.90;99.90;;;;;;4898497;29;20477;-82
2022/12/03 09:43:38;;;;;;;32.70;19.55;;;3.90;99.90;;;;;;4899155;29;20049;-82
2022/12/03 09:46:04;;;;;;;33.70;19.70;;;4.00;99.90;;;;;;4899938;29;20045;-82
2022/12/03 09:48:29;;;;;;;36.95;20.83;;;3.90;99.90;;;;;;4898547;29;20060;-82
2022/12/03 09:50:55;;;;;;;32.70;19.90;;;4.00;99.90;;;;;;4899246;29;20057;-82
2022/12/03 09:53:25;;;;;;;34.28;19.55;;;4.00;99.90;;;;;;4899847;29;20044;-82
2022/12/03 09:55:51;;;;;;;34.30;19.52;;;4.00;99.90;;;;;;4898525;29;20052;-82
2022/12/03 09:58:17;;;;;;;33.70;19.67;;;3.90;99.90;;;;;;4898805;29;20044;-82
2022/12/03 10:00:47;;;;;;;35.75;19.80;;;3.90;99.90;;;;;;4900061;29;20085;-82
2022/12/03 10:03:15;;;;;;;33.60;19.52;;;4.00;99.90;;;;;;4898849;29;20075;-82
2022/12/03 10:05:41;;;;;;;34.70;20.40;;;3.90;99.90;;;;;;4898907;29;20461;-82
2022/12/03 10:08:11;;;;;;;34.70;21.02;;;4.00;99.90;;;;;;4898651;29;20079;-82
2022/12/03 10:10:41;;;;;;;34.13;20.35;;;3.90;99.90;;;;;;4899950;29;20127;-82
2022/12/03 10:13:12;;;;;;;33.50;19.73;;;4.00;99.90;;;;;;4899677;29;20056;-82
2022/12/03 10:15:55;;;;;;;34.72;19.80;;;4.00;99.90;;;;;;4867608;29;20060;-82
2022/12/03 10:18:25;;;;;;;32.42;19.25;;;4.00;99.90;;;;;;4898327;29;20095;-82
2022/12/03 10:20:52;;;;;;;34.75;21.23;;;4.00;99.90;;;;;;4898552;29;20049;-82
2022/12/03 10:23:19;;;;;;;34.75;21.05;;;4.00;99.90;;;;;;4898669;29;20516;-82
2022/12/03 10:25:50;;;;;;;35.80;20.30;;;4.00;99.90;;;;;;4898401;29;20056;-82
2022/12/03 10:28:27;;;;;;;35.60;20.30;;;4.00;99.90;;;;;;4898225;29;20052;-82
2022/12/03 10:30:56;;;;;;;34.78;21.05;;;4.00;99.90;;;;;;4898930;29;20044;-82
2022/12/03 10:33:37;;;;;;;38.13;21.45;;;4.00;99.90;;;;;;4897806;29;20044;-82
2022/12/03 10:36:22;;;;;;;33.03;20.13;;;4.00;99.90;;;;;;4899639;29;20045;-82
2022/12/03 10:39:13;;;;;;;37.38;21.75;;;4.00;99.90;;;;;;4898565;29;20079;-82
2022/12/03 10:41:40;;;;;;;38.03;21.65;;;4.00;99.90;;;;;;4898625;29;20068;-82
2022/12/03 10:44:21;;;;;;;34.85;21.20;;;4.00;99.90;;;;;;4897741;29;20485;-82
2022/12/03 10:47:06;;;;;;;37.10;21.58;;;4.10;99.90;;;;;;4897993;29;20064;-82
2022/12/03 10:49:32;;;;;;;35.75;20.48;;;4.00;99.90;;;;;;4899178;29;20092;-82
2022/12/03 10:51:58;;;;;;;35.05;21.20;;;4.10;99.90;;;;;;4912786;29;20091;-82
2022/12/03 10:54:25;;;;;;;35.95;21.35;;;4.00;99.90;;;;;;4897722;29;20110;-82
2022/12/03 10:56:51;;;;;;;36.92;21.88;;;4.10;99.90;;;;;;4899184;29;20044;-82
2022/12/03 10:59:23;;;;;;;36.00;21.05;;;4.10;99.90;;;;;;4896561;29;20438;-82
2022/12/03 11:01:49;;;;;;;35.15;21.60;;;4.00;99.90;;;;;;4897688;29;20071;-82
2022/12/03 11:04:22;;;;;;;36.38;22.08;;;4.00;99.90;;;;;;4897634;29;20067;-82
2022/12/03 11:06:49;;;;;;;38.83;22.45;;;4.00;99.90;;;;;;4896960;29;20052;-82
2022/12/03 11:09:19;;;;;;;37.58;22.05;;;4.00;99.90;;;;;;4897214;29;20056;-82
2022/12/03 11:11:45;;;;;;;37.15;22.58;;;4.00;99.90;;;;;;4897979;29;20504;-82
2022/12/03 11:14:11;;;;;;;35.97;21.30;;;4.00;99.90;;;;;;4898404;29;20048;-82
2022/12/03 11:16:39;;;;;;;37.33;22.23;;;4.00;99.90;;;;;;4898838;29;20119;-82
2022/12/03 11:19:16;;;;;;;37.75;21.95;;;4.00;99.90;;;;;;4898248;29;20044;-82
2022/12/03 11:22:04;;;;;;;36.58;22.10;;;4.00;99.90;;;;;;4897800;29;20052;-82
2022/12/03 11:24:34;;;;;;;39.80;23.42;;;4.00;99.90;;;;;;4897150;29;20135;-82
2022/12/03 11:27:00;;;;;;;35.28;22.33;;;4.00;99.90;;;;;;4898307;29;20048;-82
2022/12/03 11:29:46;;;;;;;38.45;22.63;;;4.00;99.90;;;;;;4896885;29;20056;-82
2022/12/03 11:32:37;;;;;;;39.20;23.38;;;4.00;99.90;;;;;;4896941;29;20045;-82
2022/12/03 11:35:22;;;;;;;39.55;23.20;;;4.00;99.90;;;;;;4897537;29;20051;-82
2022/12/03 11:37:47;;;;;;;38.67;22.63;;;4.00;99.90;;;;;;4900711;29;20044;-82
2022/12/03 11:40:16;;;;;;;40.90;23.33;;;4.00;99.90;;;;;;4896125;29;20085;-82
2022/12/03 11:42:42;;;;;;;37.03;22.40;;;4.00;99.90;;;;;;4898560;29;20094;-82
2022/12/03 11:45:08;;;;;;;37.33;23.23;;;4.00;99.90;;;;;;4898192;29;20100;-82
2022/12/03 11:47:38;;;;;;;37.00;23.17;;;4.00;99.90;;;;;;4902789;29;20416;-83
2022/12/03 11:50:21;;;;;;;38.10;23.75;;;4.00;99.90;;;;;;4915488;29;20610;-84
2022/12/03 11:52:52;;;;;;;38.08;22.90;;;4.00;99.90;;;;;;4916271;29;20047;-83
2022/12/03 11:55:39;;;;;;;40.15;23.55;;;4.00;99.90;;;;;;4914786;29;20044;-83
2022/12/03 11:58:25;;;;;;;39.03;23.42;;;4.00;99.90;;;;;;4913916;29;20051;-83
2022/12/03 12:00:55;;;;;;;38.05;24.23;;;4.00;99.90;;;;;;4914832;29;20047;-83
2022/12/03 12:03:30;;;;;;;37.15;23.25;;;4.00;99.90;;;;;;4903445;29;20056;-82
2022/12/03 12:06:02;;;;;;;37.65;23.27;;;4.00;99.90;;;;;;4907720;29;20062;-83
2022/12/03 12:08:32;;;;;;;41.00;23.52;;;4.00;99.90;;;;;;4917227;29;20071;-84
2022/12/03 12:11:01;;;;;;;36.10;23.00;;;4.00;99.90;;;;;;4915774;29;20060;-83
2022/12/03 12:13:30;;;;;;;37.25;23.23;;;4.10;99.90;;;;;;4916296;29;20091;-84
2022/12/03 12:15:56;;;;;;;40.85;24.65;;;4.10;99.90;;;;;;4917118;29;20096;-82
2022/12/03 12:18:47;;;;;;;37.75;24.02;;;4.10;99.90;;;;;;4914958;29;20143;-83
2022/12/03 12:21:42;;;;;;;40.00;23.88;;;4.10;99.90;;;;;;4915345;29;20044;-83
2022/12/03 12:24:26;;;;;;;40.97;25.10;;;4.10;99.90;;;;;;4914002;29;20055;-83
2022/12/03 12:26:52;;;;;;;40.83;24.42;;;4.10;99.90;;;;;;4915598;29;20075;-82
2022/12/03 12:29:17;;;;;;;37.25;23.77;;;4.10;99.90;;;;;;4914065;29;20071;-83
2022/12/03 12:31:43;;;;;;;41.42;24.85;;;4.10;99.90;;;;;;4914587;29;20096;-83
2022/12/03 12:34:12;;;;;;;38.67;22.98;;;4.10;99.90;;;;;;4916111;29;20047;-87
2022/12/03 12:36:38;;;;;;;42.92;25.42;;;4.10;99.90;;;;;;4914933;29;20048;-87
2022/12/03 12:39:12;;;;;;;38.55;22.98;;;4.10;99.90;;;;;;4914748;29;20456;-86
2022/12/03 12:41:39;;;;;;;38.97;24.13;;;4.10;99.90;;;;;;4914917;29;20436;-87
2022/12/03 12:44:14;;;;;;;40.28;23.48;;;4.10;99.90;;;;;;4914079;29;20052;-85
2022/12/03 12:46:43;;;;;;;39.05;23.92;;;4.10;99.90;;;;;;4916220;29;20052;-85
2022/12/03 12:49:14;;;;;;;41.83;23.85;;;4.10;99.90;;;;;;4912931;29;20067;-82
2022/12/03 12:51:45;;;;;;;40.25;23.60;;;4.10;99.90;;;;;;4928908;29;20087;-83
2022/12/03 12:54:12;;;;;;;40.38;23.63;;;4.10;99.90;;;;;;4914572;29;20103;-83
2022/12/03 12:56:41;;;;;;;40.25;23.73;;;4.10;99.90;;;;;;4915829;29;20390;-82
2022/12/03 12:59:16;;;;;;;41.90;24.15;;;4.20;99.90;;;;;;4915426;29;20044;-83
2022/12/03 13:01:43;;;;;;;38.15;23.10;;;4.20;99.90;;;;;;4915999;29;20046;-82
2022/12/03 13:04:14;;;;;;;39.78;23.50;;;4.20;99.90;;;;;;4913972;29;20055;-82
2022/12/03 13:06:42;;;;;;;37.95;22.65;;;4.20;99.90;;;;;;4914707;29;20119;-80
2022/12/03 13:09:14;;;;;;;36.92;23.15;;;4.20;99.90;;;;;;4911590;29;20060;-81